RYR86Z EBCI-LFMU
Flight info
| Callsign | RYR86Z |
|---|---|
| Flight time | N/A |
| Altitude | 31000 |
| Route | CIV N872 LESDO DCT KOVIN DCT DUCRA UM728 RESMI UN857 DISAK DCT DIRMO DCT ETAMO DCT ADEKA DCT MOKDI DCT MEN J27 AFRIC |
| Aircraft | B738/M-SDE2E3FGHIRWXY/LB1 |
Departure
| Time | N/A |
|---|---|
| Airport | Brussels South Charleroi Airport (EBCI) |
Arrival
| Time | 2026-04-20 13:11 |
|---|---|
| Airport | Béziers Vias airport (LFMU) |
| Time | Latitude | Longitude | Altitude | Speed | Heading |
|---|---|---|---|---|---|
| 2026-04-20 12:45 | 45.43224 | 3.17327 | 31030 ft | 473 kts | 186° |
| 2026-04-20 12:46 | 45.36668 | 3.17234 | 31033 ft | 473 kts | 186° |
| 2026-04-20 12:46 | 45.30059 | 3.17151 | 31025 ft | 473 kts | 186° |
| 2026-04-20 12:47 | 45.23469 | 3.17075 | 31022 ft | 473 kts | 186° |
| 2026-04-20 12:47 | 45.16916 | 3.16989 | 31007 ft | 473 kts | 186° |
| 2026-04-20 12:48 | 45.10375 | 3.16897 | 31011 ft | 470 kts | 186° |
| 2026-04-20 12:48 | 45.07120 | 3.16858 | 30992 ft | 452 kts | 186° |
| 2026-04-20 12:48 | 45.04068 | 3.16824 | 30988 ft | 435 kts | 186° |
| 2026-04-20 12:48 | 45.01093 | 3.16786 | 30987 ft | 419 kts | 187° |
| 2026-04-20 12:49 | 44.98234 | 3.16749 | 30965 ft | 404 kts | 187° |
| 2026-04-20 12:49 | 44.95433 | 3.16710 | 30651 ft | 399 kts | 187° |
| 2026-04-20 12:49 | 44.92675 | 3.16669 | 30336 ft | 394 kts | 187° |
| 2026-04-20 12:49 | 44.89945 | 3.16629 | 29958 ft | 391 kts | 187° |
| 2026-04-20 12:50 | 44.87238 | 3.16589 | 29542 ft | 387 kts | 187° |
| 2026-04-20 12:50 | 44.84552 | 3.16552 | 29171 ft | 382 kts | 187° |
| 2026-04-20 12:50 | 44.81927 | 3.16518 | 28778 ft | 379 kts | 187° |
| 2026-04-20 12:50 | 44.79303 | 3.16484 | 28397 ft | 375 kts | 187° |
| 2026-04-20 12:51 | 44.76705 | 3.16448 | 28031 ft | 371 kts | 187° |
| 2026-04-20 12:51 | 44.74123 | 3.16407 | 27648 ft | 368 kts | 187° |
| 2026-04-20 12:51 | 44.71573 | 3.16366 | 27272 ft | 365 kts | 187° |
| 2026-04-20 12:51 | 44.69042 | 3.16327 | 26908 ft | 362 kts | 187° |
| 2026-04-20 12:52 | 44.66530 | 3.16289 | 26545 ft | 359 kts | 187° |
| 2026-04-20 12:52 | 44.64068 | 3.16255 | 26198 ft | 357 kts | 186° |
| 2026-04-20 12:52 | 44.61583 | 3.16202 | 25836 ft | 353 kts | 190° |
| 2026-04-20 12:52 | 44.59180 | 3.15721 | 25475 ft | 344 kts | 199° |
| 2026-04-20 12:53 | 44.56877 | 3.14911 | 25145 ft | 340 kts | 200° |
| 2026-04-20 12:53 | 44.54581 | 3.14070 | 24797 ft | 339 kts | 201° |
| 2026-04-20 12:53 | 44.52333 | 3.13246 | 24452 ft | 338 kts | 201° |
| 2026-04-20 12:53 | 44.50061 | 3.12419 | 24111 ft | 336 kts | 200° |
| 2026-04-20 12:54 | 44.47789 | 3.11600 | 23763 ft | 336 kts | 200° |
| 2026-04-20 12:54 | 44.45532 | 3.10792 | 23384 ft | 335 kts | 200° |
| 2026-04-20 12:54 | 44.43266 | 3.09986 | 22997 ft | 334 kts | 200° |
| 2026-04-20 12:54 | 44.41017 | 3.09189 | 22633 ft | 332 kts | 200° |
| 2026-04-20 12:55 | 44.38779 | 3.08397 | 22276 ft | 331 kts | 200° |
| 2026-04-20 12:55 | 44.36546 | 3.07608 | 21933 ft | 328 kts | 200° |
| 2026-04-20 12:55 | 44.34364 | 3.06840 | 21612 ft | 326 kts | 200° |
| 2026-04-20 12:55 | 44.32168 | 3.06066 | 21270 ft | 325 kts | 200° |
| 2026-04-20 12:56 | 44.29981 | 3.05294 | 20936 ft | 323 kts | 200° |
| 2026-04-20 12:56 | 44.27807 | 3.04529 | 20605 ft | 321 kts | 199° |
| 2026-04-20 12:56 | 44.25640 | 3.03766 | 20289 ft | 319 kts | 199° |
| 2026-04-20 12:56 | 44.23485 | 3.03007 | 19962 ft | 318 kts | 199° |
| 2026-04-20 12:57 | 44.21340 | 3.02253 | 19638 ft | 316 kts | 199° |
| 2026-04-20 12:57 | 44.19208 | 3.01504 | 19316 ft | 315 kts | 199° |
| 2026-04-20 12:57 | 44.17113 | 3.00768 | 19000 ft | 313 kts | 199° |
| 2026-04-20 12:57 | 44.14995 | 3.00026 | 18679 ft | 312 kts | 199° |
| 2026-04-20 12:58 | 44.12887 | 2.99288 | 18361 ft | 311 kts | 199° |
| 2026-04-20 12:58 | 44.10792 | 2.98554 | 17993 ft | 310 kts | 199° |
| 2026-04-20 12:58 | 44.08703 | 2.97823 | 17651 ft | 308 kts | 199° |
| 2026-04-20 12:58 | 44.06627 | 2.97096 | 17321 ft | 306 kts | 199° |
| 2026-04-20 12:59 | 44.04569 | 2.96376 | 17002 ft | 304 kts | 199° |
| 2026-04-20 12:59 | 44.02525 | 2.95661 | 16685 ft | 301 kts | 199° |
| 2026-04-20 12:59 | 44.00496 | 2.94951 | 16379 ft | 301 kts | 198° |
| 2026-04-20 12:59 | 43.98490 | 2.94249 | 16068 ft | 300 kts | 199° |
| 2026-04-20 13:00 | 43.96466 | 2.93541 | 15758 ft | 299 kts | 198° |
| 2026-04-20 13:00 | 43.94447 | 2.92835 | 15459 ft | 298 kts | 199° |
| 2026-04-20 13:00 | 43.92431 | 2.92129 | 15147 ft | 298 kts | 198° |
| 2026-04-20 13:00 | 43.90413 | 2.91427 | 14852 ft | 298 kts | 198° |
| 2026-04-20 13:01 | 43.88400 | 2.90726 | 14524 ft | 298 kts | 198° |
| 2026-04-20 13:01 | 43.86409 | 2.90033 | 14229 ft | 298 kts | 198° |
| 2026-04-20 13:01 | 43.84399 | 2.89333 | 13915 ft | 298 kts | 198° |
| 2026-04-20 13:01 | 43.82384 | 2.88632 | 13587 ft | 298 kts | 198° |
| 2026-04-20 13:02 | 43.80376 | 2.87936 | 13236 ft | 297 kts | 198° |
| 2026-04-20 13:02 | 43.78341 | 2.87406 | 12883 ft | 301 kts | 184° |
| 2026-04-20 13:02 | 43.76292 | 2.87983 | 12679 ft | 303 kts | 160° |
| 2026-04-20 13:02 | 43.74453 | 2.89432 | 12392 ft | 304 kts | 149° |
| 2026-04-20 13:03 | 43.72707 | 2.91075 | 12086 ft | 303 kts | 148° |
| 2026-04-20 13:03 | 43.70984 | 2.92744 | 11774 ft | 302 kts | 147° |
| 2026-04-20 13:03 | 43.69264 | 2.94401 | 11460 ft | 301 kts | 148° |
| 2026-04-20 13:03 | 43.67540 | 2.96045 | 11154 ft | 299 kts | 148° |
| 2026-04-20 13:04 | 43.65826 | 2.97665 | 10844 ft | 298 kts | 148° |
| 2026-04-20 13:04 | 43.64111 | 2.99275 | 10541 ft | 298 kts | 148° |
| 2026-04-20 13:04 | 43.62398 | 3.00874 | 10233 ft | 297 kts | 148° |
| 2026-04-20 13:04 | 43.60697 | 3.02460 | 10062 ft | 291 kts | 148° |
| 2026-04-20 13:05 | 43.59044 | 3.03999 | 9819 ft | 290 kts | 148° |
| 2026-04-20 13:05 | 43.57357 | 3.05564 | 9497 ft | 291 kts | 148° |
| 2026-04-20 13:05 | 43.55673 | 3.07125 | 9173 ft | 290 kts | 148° |
| 2026-04-20 13:05 | 43.53998 | 3.08679 | 8872 ft | 290 kts | 148° |
| 2026-04-20 13:06 | 43.52344 | 3.10212 | 8570 ft | 289 kts | 148° |
| 2026-04-20 13:06 | 43.50685 | 3.11732 | 8267 ft | 281 kts | 152° |
| 2026-04-20 13:06 | 43.48843 | 3.12503 | 7584 ft | 282 kts | 182° |
| 2026-04-20 13:06 | 43.46864 | 3.12339 | 6887 ft | 288 kts | 187° |
| 2026-04-20 13:07 | 43.44829 | 3.12133 | 6153 ft | 296 kts | 186° |
| 2026-04-20 13:07 | 43.42750 | 3.11979 | 5407 ft | 302 kts | 184° |
| 2026-04-20 13:07 | 43.40654 | 3.11868 | 4699 ft | 305 kts | 184° |
| 2026-04-20 13:07 | 43.38511 | 3.11772 | 3961 ft | 308 kts | 182° |
| 2026-04-20 13:08 | 43.36371 | 3.11946 | 3273 ft | 309 kts | 169° |
| 2026-04-20 13:08 | 43.34499 | 3.13292 | 2902 ft | 302 kts | 136° |
| 2026-04-20 13:08 | 43.33476 | 3.15664 | 2778 ft | 281 kts | 104° |
| 2026-04-20 13:08 | 43.33216 | 3.18315 | 2344 ft | 280 kts | 92° |
| 2026-04-20 13:09 | 43.33134 | 3.20942 | 1995 ft | 270 kts | 93° |
| 2026-04-20 13:09 | 43.33005 | 3.23449 | 1655 ft | 253 kts | 96° |
| 2026-04-20 13:09 | 43.32877 | 3.25744 | 1292 ft | 236 kts | 94° |
| 2026-04-20 13:09 | 43.32762 | 3.27900 | 1009 ft | 217 kts | 97° |
| 2026-04-20 13:10 | 43.32671 | 3.29271 | 837 ft | 206 kts | 98° |
| 2026-04-20 13:10 | 43.32564 | 3.31771 | 520 ft | 181 kts | 98° |
| 2026-04-20 13:10 | 43.32493 | 3.32864 | 297 ft | 167 kts | 99° |
| 2026-04-20 13:10 | 43.32406 | 3.34357 | 70 ft | 145 kts | 97° |
| 2026-04-20 13:11 | 43.32328 | 3.35569 | 53 ft | 100 kts | 94° |
| 2026-04-20 13:11 | 43.32291 | 3.36224 | 50 ft | 37 kts | 94° |
| 2026-04-20 13:11 | 43.32278 | 3.36488 | 50 ft | 16 kts | 94° |
| 2026-04-20 13:11 | 43.32270 | 3.36638 | 50 ft | 16 kts | 98° |
| 2026-04-20 13:12 | 43.32248 | 3.36731 | 50 ft | 5 kts | 59° |
| 2026-04-20 13:12 | 43.32257 | 3.36733 | 50 ft | 1 kts | 338° |
| 2026-04-20 13:12 | 43.32267 | 3.36692 | 50 ft | 9 kts | 281° |
| 2026-04-20 13:12 | 43.32273 | 3.36574 | 50 ft | 14 kts | 273° |
| 2026-04-20 13:13 | 43.32281 | 3.36427 | 51 ft | 17 kts | 274° |
| 2026-04-20 13:13 | 43.32290 | 3.36262 | 51 ft | 18 kts | 274° |
| 2026-04-20 13:13 | 43.32301 | 3.36070 | 50 ft | 21 kts | 275° |
| 2026-04-20 13:13 | 43.32313 | 3.35867 | 53 ft | 21 kts | 274° |
| 2026-04-20 13:14 | 43.32324 | 3.35669 | 50 ft | 20 kts | 274° |
| 2026-04-20 13:14 | 43.32335 | 3.35478 | 55 ft | 20 kts | 274° |
| 2026-04-20 13:14 | 43.32284 | 3.35335 | 53 ft | 19 kts | 193° |
| 2026-04-20 13:14 | 43.32191 | 3.35311 | 50 ft | 12 kts | 221° |
| 2026-04-20 13:15 | 43.32180 | 3.35229 | 49 ft | 6 kts | 257° |
| 2026-04-20 13:15 | 43.32176 | 3.35225 | 49 ft | 0 kts | 214° |
| 2026-04-20 13:15 | 43.32174 | 3.35224 | 50 ft | 2 kts | 211° |
| 2026-04-20 13:15 | 43.32160 | 3.35221 | 53 ft | 3 kts | 169° |
| 2026-04-20 13:16 | 43.32142 | 3.35241 | 52 ft | 0 kts | 135° |
| 2026-04-20 13:16 | 43.32142 | 3.35242 | 52 ft | 0 kts | 134° |